createdAt,value
2019-01-14T00:00:51.549Z,3.40
2019-01-14T00:03:33.531Z,3.30
2019-01-14T00:06:15.535Z,3.20
2019-01-14T00:08:57.444Z,3.20
2019-01-14T00:11:39.232Z,3.10
2019-01-14T00:14:20.890Z,3.10
2019-01-14T00:17:02.636Z,3.00
2019-01-14T00:19:44.468Z,3.00
2019-01-14T00:22:26.216Z,3.00
2019-01-14T00:25:08.072Z,3.00
2019-01-14T00:27:50.028Z,3.10
2019-01-14T00:30:32.135Z,3.20
2019-01-14T00:33:13.732Z,3.20
2019-01-14T00:35:55.806Z,3.30
2019-01-14T00:38:37.605Z,3.40
2019-01-14T00:41:20.143Z,3.40
2019-01-14T00:44:02.094Z,3.40
2019-01-14T00:46:44.251Z,3.50
2019-01-14T00:49:25.956Z,3.50
2019-01-14T00:52:08.137Z,3.50
2019-01-14T00:54:50.122Z,3.50
2019-01-14T00:57:31.963Z,3.50
2019-01-14T01:00:14.475Z,3.60
2019-01-14T01:02:56.706Z,3.60
2019-01-14T01:05:38.854Z,3.60
2019-01-14T01:08:21.038Z,3.60
2019-01-14T01:11:03.226Z,3.70
2019-01-14T01:13:45.450Z,3.60
2019-01-14T01:16:27.415Z,3.60
2019-01-14T01:19:09.401Z,3.60
2019-01-14T01:21:51.414Z,3.60
2019-01-14T01:24:33.159Z,3.60
2019-01-14T01:27:14.806Z,3.60
2019-01-14T01:29:56.594Z,3.50
2019-01-14T01:32:38.286Z,3.40
2019-01-14T01:35:19.974Z,3.20
2019-01-14T01:38:02.050Z,3.00
2019-01-14T01:40:44.606Z,3.00
2019-01-14T01:43:26.465Z,2.80
2019-01-14T01:46:08.461Z,2.70
2019-01-14T01:48:50.124Z,2.60
2019-01-14T01:51:32.145Z,2.50
2019-01-14T01:54:14.471Z,2.40
2019-01-14T01:56:56.090Z,2.40
2019-01-14T01:59:26.392Z,2.30
2019-01-14T02:02:17.262Z,2.30
2019-01-14T02:05:00.728Z,2.20
2019-01-14T02:07:42.476Z,2.20
2019-01-14T02:10:24.450Z,2.20
2019-01-14T02:13:06.131Z,2.30
2019-01-14T02:15:48.250Z,2.30
2019-01-14T02:18:30.510Z,2.40
2019-01-14T02:21:12.129Z,2.40
2019-01-14T02:23:53.787Z,2.60
2019-01-14T02:26:35.514Z,2.70
2019-01-14T02:29:18.102Z,2.80
2019-01-14T02:31:59.933Z,2.90
2019-01-14T02:34:42.070Z,2.90
2019-01-14T02:37:23.940Z,2.90
2019-01-14T02:40:06.306Z,3.00
2019-01-14T02:42:48.379Z,2.90
2019-01-14T02:45:30.489Z,2.90
2019-01-14T02:48:12.146Z,2.90
2019-01-14T02:50:53.846Z,2.90
2019-01-14T02:53:35.550Z,2.90
2019-01-14T02:56:17.775Z,2.90
2019-01-14T02:58:59.496Z,3.10
2019-01-14T03:01:41.191Z,3.40
2019-01-14T03:04:23.156Z,3.80
2019-01-14T03:07:05.020Z,4.20
2019-01-14T03:09:35.374Z,4.60
2019-01-14T03:12:26.153Z,4.80
2019-01-14T03:15:08.567Z,4.90
2019-01-14T03:17:57.970Z,5.00
2019-01-14T03:20:41.450Z,4.90
2019-01-14T03:23:23.307Z,4.90
2019-01-14T03:26:05.850Z,4.90
2019-01-14T03:28:47.498Z,4.80
2019-01-14T03:31:29.145Z,4.80
2019-01-14T03:34:10.921Z,4.80
2019-01-14T03:36:52.589Z,4.70
2019-01-14T03:39:34.330Z,4.60
2019-01-14T03:45:07.802Z,4.20
2019-01-14T03:47:58.590Z,4.10
2019-01-14T03:50:40.363Z,4.00
2019-01-14T03:53:22.658Z,4.00
2019-01-14T03:56:04.337Z,4.00
2019-01-14T03:58:47.229Z,3.90
2019-01-14T04:01:27.977Z,3.80
2019-01-14T04:04:17.296Z,3.70
2019-01-14T04:07:00.850Z,3.70
2019-01-14T04:09:42.863Z,3.60
2019-01-14T04:12:24.661Z,3.60
2019-01-14T04:15:06.352Z,3.50
2019-01-14T04:17:48.206Z,3.40
2019-01-14T04:20:31.242Z,3.30
2019-01-14T04:23:12.904Z,3.20
2019-01-14T04:25:54.518Z,3.10
2019-01-14T04:28:36.595Z,3.00
2019-01-14T04:31:18.828Z,2.90
2019-01-14T04:34:00.671Z,2.90
2019-01-14T04:36:42.611Z,2.90
2019-01-14T04:39:24.787Z,3.00
2019-01-14T04:42:06.700Z,3.00
2019-01-14T04:44:48.643Z,3.00
2019-01-14T04:47:30.375Z,3.00
2019-01-14T04:50:12.714Z,3.00
2019-01-14T04:52:55.302Z,3.10
2019-01-14T04:55:37.469Z,3.10
2019-01-14T04:58:19.547Z,3.10
2019-01-14T05:01:01.277Z,3.10
2019-01-14T05:03:44.714Z,3.20
2019-01-14T05:06:27.046Z,3.20
2019-01-14T05:09:09.047Z,3.10
2019-01-14T05:11:50.836Z,3.10
2019-01-14T05:14:32.677Z,3.00
2019-01-14T05:17:14.692Z,3.20
2019-01-14T05:19:56.610Z,3.40
2019-01-14T05:22:38.855Z,3.60
2019-01-14T05:25:21.035Z,3.70
2019-01-14T05:28:02.787Z,3.80
2019-01-14T05:30:44.658Z,4.00
2019-01-14T05:33:26.724Z,4.10
2019-01-14T05:36:09.190Z,4.20
2019-01-14T05:38:51.526Z,4.20
2019-01-14T05:41:33.595Z,4.30
2019-01-14T05:44:14.054Z,4.20
2019-01-14T05:47:03.437Z,4.00
2019-01-14T05:49:47.432Z,4.10
2019-01-14T05:52:29.194Z,4.10
2019-01-14T05:55:11.033Z,4.00
2019-01-14T05:57:53.065Z,4.00
2019-01-14T06:03:38.940Z,4.00
2019-01-14T06:06:20.701Z,4.00
2019-01-14T06:09:04.242Z,4.00
2019-01-14T06:11:46.079Z,3.90
2019-01-14T06:14:27.755Z,3.90
2019-01-14T06:17:09.943Z,3.90
2019-01-14T06:19:52.418Z,4.00
2019-01-14T06:22:34.046Z,3.90
2019-01-14T06:25:16.060Z,4.00
2019-01-14T06:27:58.316Z,4.00
2019-01-14T06:30:40.131Z,3.80
2019-01-14T06:33:22.290Z,3.70
2019-01-14T06:36:04.830Z,3.60
2019-01-14T06:38:46.682Z,3.50
2019-01-14T06:41:29.155Z,3.50
2019-01-14T06:44:11.090Z,3.50
2019-01-14T06:46:53.125Z,3.50
2019-01-14T06:49:35.023Z,3.60
2019-01-14T06:52:17.104Z,3.70
2019-01-14T06:54:58.750Z,3.70
2019-01-14T06:57:40.891Z,3.80
2019-01-14T07:00:22.797Z,4.00
2019-01-14T07:03:04.761Z,4.20
2019-01-14T07:05:46.510Z,4.30
2019-01-14T07:08:28.402Z,4.30
2019-01-14T07:11:10.303Z,4.40
2019-01-14T07:13:52.284Z,4.40
2019-01-14T07:16:34.079Z,4.50
2019-01-14T07:19:16.036Z,4.70
2019-01-14T07:21:57.930Z,4.70
2019-01-14T07:24:39.790Z,4.70
2019-01-14T07:27:22.087Z,4.60
2019-01-14T07:30:03.864Z,4.90
2019-01-14T07:32:45.882Z,5.40
2019-01-14T07:35:27.710Z,6.10
2019-01-14T07:38:09.582Z,6.70
2019-01-14T07:40:51.899Z,6.60
2019-01-14T07:43:33.878Z,6.60
2019-01-14T07:46:16.022Z,6.60
2019-01-14T07:48:58.190Z,6.90
2019-01-14T07:52:08.003Z,7.20
2019-01-14T07:54:58.867Z,7.80
2019-01-14T07:57:42.550Z,8.20
2019-01-14T08:00:24.670Z,8.40
2019-01-14T08:03:06.574Z,8.60
2019-01-14T08:05:48.622Z,8.90
2019-01-14T08:08:30.550Z,9.00
2019-01-14T08:11:12.241Z,9.10
2019-01-14T08:13:54.411Z,9.00
2019-01-14T08:16:36.419Z,8.80
2019-01-14T08:19:18.058Z,8.80
2019-01-14T08:22:00.151Z,8.80
2019-01-14T08:24:41.734Z,8.90
2019-01-14T08:27:23.714Z,9.00
2019-01-14T08:30:05.410Z,9.00
2019-01-14T08:32:47.534Z,9.20
2019-01-14T08:35:29.314Z,9.10
2019-01-14T08:38:11.120Z,9.20
2019-01-14T08:40:53.526Z,9.40
2019-01-14T08:43:37.537Z,9.30
2019-01-14T08:46:19.231Z,9.50
2019-01-14T08:49:01.451Z,9.80
2019-01-14T08:51:43.302Z,9.90
2019-01-14T08:54:25.465Z,10.00
2019-01-14T08:57:07.502Z,10.10
2019-01-14T08:59:49.438Z,10.20
2019-01-14T09:02:31.918Z,10.10
2019-01-14T09:05:14.202Z,10.00
2019-01-14T09:07:56.014Z,9.90
2019-01-14T09:10:38.315Z,9.80
2019-01-14T09:13:20.802Z,9.70
2019-01-14T09:16:03.442Z,9.70
2019-01-14T09:18:45.357Z,9.50
2019-01-14T09:21:28.022Z,9.60
2019-01-14T09:24:10.369Z,9.60
2019-01-14T09:26:52.370Z,9.70
2019-01-14T09:29:34.737Z,9.70
2019-01-14T09:32:16.967Z,9.50
2019-01-14T09:34:58.650Z,9.40
2019-01-14T09:37:40.905Z,9.30
2019-01-14T09:40:23.242Z,9.00
2019-01-14T09:43:05.734Z,8.90
2019-01-14T09:45:47.610Z,8.70
2019-01-14T09:48:29.514Z,8.50
2019-01-14T09:51:11.611Z,8.60
2019-01-14T09:53:53.878Z,8.60
2019-01-14T09:56:35.742Z,8.50
2019-01-14T09:59:18.362Z,8.40
2019-01-14T10:02:00.007Z,8.30
2019-01-14T10:04:41.977Z,8.30
2019-01-14T10:07:23.879Z,8.30
2019-01-14T10:10:06.354Z,8.30
2019-01-14T10:12:48.228Z,8.20
2019-01-14T10:15:29.934Z,8.00
2019-01-14T10:18:11.986Z,8.00
2019-01-14T10:20:54.323Z,8.00
2019-01-14T10:23:36.070Z,7.90
2019-01-14T10:26:17.798Z,7.90
2019-01-14T10:29:00.002Z,8.00
2019-01-14T10:31:41.974Z,8.00
2019-01-14T10:34:24.150Z,8.20
2019-01-14T10:37:06.310Z,8.20
2019-01-14T10:39:48.186Z,8.30
2019-01-14T10:42:30.433Z,8.30
2019-01-14T10:45:12.469Z,8.50
2019-01-14T10:47:54.675Z,8.50
2019-01-14T10:50:36.686Z,8.60
2019-01-14T10:53:18.662Z,8.60
2019-01-14T10:56:00.697Z,8.50
2019-01-14T10:58:42.667Z,8.50
2019-01-14T11:01:25.094Z,8.40
2019-01-14T11:04:07.530Z,8.40
2019-01-14T11:06:49.613Z,8.30
2019-01-14T11:09:31.238Z,8.30
2019-01-14T11:12:12.882Z,8.20
2019-01-14T11:14:54.844Z,8.20
2019-01-14T11:17:36.810Z,8.30
2019-01-14T11:20:18.459Z,8.30
2019-01-14T11:23:00.922Z,8.30
2019-01-14T11:25:42.994Z,8.30
2019-01-14T11:28:25.038Z,8.30
2019-01-14T11:31:07.373Z,8.50
2019-01-14T11:33:49.624Z,8.50
2019-01-14T11:36:31.405Z,8.50
2019-01-14T11:39:13.771Z,8.60
2019-01-14T11:41:55.511Z,8.70
2019-01-14T11:44:37.346Z,8.80
2019-01-14T11:47:19.542Z,8.80
2019-01-14T11:50:01.399Z,8.80
2019-01-14T11:52:43.233Z,8.90
2019-01-14T11:55:24.974Z,8.90
2019-01-14T11:58:06.846Z,8.80
2019-01-14T12:00:48.543Z,8.80
2019-01-14T12:03:30.451Z,8.80
2019-01-14T12:06:12.449Z,8.90
2019-01-14T12:08:54.585Z,8.90
2019-01-14T12:11:38.786Z,8.90
2019-01-14T12:14:21.339Z,8.80
2019-01-14T12:17:03.234Z,8.80
2019-01-14T12:19:45.489Z,8.70
2019-01-14T12:22:27.710Z,8.70
2019-01-14T12:25:09.339Z,8.70
2019-01-14T12:27:51.337Z,8.70
2019-01-14T12:30:33.286Z,8.70
2019-01-14T12:33:15.174Z,8.70
2019-01-14T12:35:57.426Z,8.70
2019-01-14T12:38:39.263Z,8.60
2019-01-14T12:41:21.040Z,8.40
2019-01-14T12:44:03.138Z,8.30
2019-01-14T12:46:45.397Z,8.20
2019-01-14T12:49:27.249Z,8.20
2019-01-14T12:52:09.486Z,8.20
2019-01-14T12:54:51.487Z,8.10
2019-01-14T12:57:33.350Z,8.00
2019-01-14T13:00:15.046Z,7.90
2019-01-14T13:02:58.719Z,7.70
2019-01-14T13:05:41.034Z,7.60
2019-01-14T13:08:22.915Z,7.40
2019-01-14T13:11:04.683Z,7.40
2019-01-14T13:13:46.774Z,7.30
2019-01-14T13:16:28.795Z,7.50
2019-01-14T13:19:10.957Z,7.60
2019-01-14T13:21:53.282Z,7.50
2019-01-14T13:24:35.248Z,7.60
2019-01-14T13:27:17.146Z,7.60
2019-01-14T13:29:59.022Z,7.60
2019-01-14T13:32:40.922Z,7.60
2019-01-14T13:35:22.851Z,7.60
2019-01-14T13:38:05.132Z,7.50
2019-01-14T13:40:47.354Z,7.50
2019-01-14T13:43:29.274Z,7.50
2019-01-14T13:46:10.931Z,7.60
2019-01-14T13:48:52.818Z,7.60
2019-01-14T13:51:34.681Z,7.50
2019-01-14T13:54:16.852Z,7.50
2019-01-14T13:56:58.731Z,7.40
2019-01-14T13:59:41.023Z,7.30
2019-01-14T14:02:22.926Z,7.20
2019-01-14T14:05:05.972Z,7.30
2019-01-14T14:07:46.637Z,7.20
2019-01-14T14:10:36.010Z,7.10
2019-01-14T14:13:19.721Z,7.10
2019-01-14T14:16:01.819Z,7.00
2019-01-14T14:18:43.746Z,6.90
2019-01-14T14:21:25.912Z,6.90
2019-01-14T14:24:07.914Z,6.90
2019-01-14T14:26:50.360Z,6.90
2019-01-14T14:29:32.554Z,6.80
2019-01-14T14:32:14.566Z,6.80
2019-01-14T14:34:56.458Z,6.70
2019-01-14T14:37:38.634Z,6.70
2019-01-14T14:40:20.937Z,6.50
2019-01-14T14:43:03.329Z,6.40
2019-01-14T14:45:45.546Z,6.40
2019-01-14T14:48:27.922Z,6.40
2019-01-14T14:51:09.734Z,6.40
2019-01-14T14:53:51.406Z,6.30
2019-01-14T14:56:33.118Z,6.20
2019-01-14T14:59:14.718Z,6.00
2019-01-14T15:01:57.158Z,5.80
2019-01-14T15:04:39.470Z,5.80
2019-01-14T15:07:21.450Z,5.80
2019-01-14T15:10:04.050Z,5.70
2019-01-14T15:12:46.007Z,5.60
2019-01-14T15:15:27.954Z,5.50
2019-01-14T15:18:09.859Z,5.40
2019-01-14T15:20:52.050Z,5.40
2019-01-14T15:23:34.012Z,5.30
2019-01-14T15:26:16.519Z,5.20
2019-01-14T15:28:58.662Z,5.10
2019-01-14T15:31:41.147Z,4.90
2019-01-14T15:34:23.398Z,4.70
2019-01-14T15:37:05.446Z,4.50
2019-01-14T15:39:47.451Z,4.50
2019-01-14T15:42:29.658Z,4.40
2019-01-14T15:45:11.650Z,4.20
2019-01-14T15:47:53.401Z,4.00
2019-01-14T15:50:35.872Z,3.90
2019-01-14T15:53:17.946Z,3.80
2019-01-14T15:55:59.671Z,3.80
2019-01-14T15:58:41.234Z,3.90
2019-01-14T16:01:24.274Z,3.90
2019-01-14T16:04:06.733Z,3.90
2019-01-14T16:06:48.597Z,3.90
2019-01-14T16:09:30.941Z,3.90
2019-01-14T16:12:12.950Z,3.90
2019-01-14T16:14:55.254Z,3.70
2019-01-14T16:17:37.550Z,3.70
2019-01-14T16:20:19.453Z,3.70
2019-01-14T16:23:01.298Z,3.50
2019-01-14T16:25:43.550Z,3.40
2019-01-14T16:28:25.459Z,3.40
2019-01-14T16:31:07.494Z,3.50
2019-01-14T16:33:49.341Z,3.50
2019-01-14T16:36:31.261Z,3.60
2019-01-14T16:39:13.654Z,3.60
2019-01-14T16:41:55.666Z,3.60
2019-01-14T16:44:37.875Z,3.70
2019-01-14T16:47:19.664Z,3.70
2019-01-14T16:50:01.582Z,3.80
2019-01-14T16:52:43.869Z,3.90
2019-01-14T16:58:45.523Z,4.20
2019-01-14T17:01:27.818Z,4.40
2019-01-14T17:04:10.186Z,4.60
2019-01-14T17:06:52.082Z,4.70
2019-01-14T17:09:36.630Z,4.70
2019-01-14T17:12:18.982Z,4.70
2019-01-14T17:15:01.088Z,4.80
2019-01-14T17:17:42.930Z,4.70
2019-01-14T17:20:24.730Z,4.70
2019-01-14T17:23:06.599Z,4.70
2019-01-14T17:25:48.570Z,4.60
2019-01-14T17:28:30.878Z,4.60
2019-01-14T17:31:13.022Z,4.50
2019-01-14T17:33:55.464Z,4.50
2019-01-14T17:36:37.683Z,4.50
2019-01-14T17:39:19.978Z,4.40
2019-01-14T17:42:02.217Z,4.30
2019-01-14T17:44:44.330Z,4.20
2019-01-14T17:47:26.339Z,4.10
2019-01-14T17:50:08.938Z,4.10
2019-01-14T17:52:50.997Z,4.20
2019-01-14T17:55:32.967Z,4.20
2019-01-14T17:58:14.967Z,4.20
2019-01-14T18:00:56.697Z,4.10
2019-01-14T18:03:38.190Z,4.10
2019-01-14T18:06:19.842Z,4.10
2019-01-14T18:09:01.676Z,3.90
2019-01-14T18:11:43.846Z,3.90
2019-01-14T18:14:25.514Z,3.70
2019-01-14T18:17:07.530Z,3.60
2019-01-14T18:19:49.355Z,3.40
2019-01-14T18:22:31.514Z,3.20
2019-01-14T18:25:13.802Z,3.10
2019-01-14T18:27:55.922Z,2.80
2019-01-14T18:30:38.370Z,2.70
2019-01-14T18:33:20.182Z,2.50
2019-01-14T18:36:02.266Z,2.50
2019-01-14T18:38:44.009Z,2.70
2019-01-14T18:41:26.000Z,2.70
2019-01-14T18:43:56.378Z,2.70
2019-01-14T18:46:45.793Z,2.60
2019-01-14T18:49:33.142Z,2.40
2019-01-14T18:52:15.578Z,2.30
2019-01-14T18:54:57.218Z,2.30
2019-01-14T18:57:38.882Z,2.30
2019-01-14T19:00:20.548Z,2.20
2019-01-14T19:03:02.256Z,2.20
2019-01-14T19:05:43.979Z,2.10
2019-01-14T19:08:25.830Z,2.10
2019-01-14T19:11:07.645Z,2.10
2019-01-14T19:13:50.235Z,2.10
2019-01-14T19:16:32.392Z,2.10
2019-01-14T19:19:14.159Z,2.10
2019-01-14T19:21:56.188Z,2.10
2019-01-14T19:24:38.078Z,2.20
2019-01-14T19:27:20.019Z,2.20
2019-01-14T19:29:50.429Z,2.30
2019-01-14T19:32:41.435Z,2.30
2019-01-14T19:35:25.123Z,2.60
2019-01-14T19:38:07.120Z,2.70
2019-01-14T19:40:49.150Z,2.90
2019-01-14T19:43:31.478Z,3.10
2019-01-14T19:46:13.710Z,3.40
2019-01-14T19:48:55.583Z,3.60
2019-01-14T19:51:37.559Z,3.70
2019-01-14T19:54:20.163Z,3.90
2019-01-14T19:57:01.994Z,3.80
2019-01-14T19:59:43.631Z,3.70
2019-01-14T20:02:25.575Z,3.60
2019-01-14T20:05:07.341Z,3.40
2019-01-14T20:07:50.306Z,3.20
2019-01-14T20:10:32.708Z,3.00
2019-01-14T20:13:03.266Z,2.80
2019-01-14T20:15:33.906Z,2.60
2019-01-14T20:18:09.868Z,2.40
2019-01-14T20:21:00.882Z,2.30
2019-01-14T20:23:43.891Z,2.10
2019-01-14T20:26:25.833Z,2.10
2019-01-14T20:29:08.222Z,1.90
2019-01-14T20:31:50.410Z,1.70
2019-01-14T20:34:32.312Z,1.50
2019-01-14T20:37:14.363Z,1.30
2019-01-14T20:39:56.922Z,1.30
2019-01-14T20:42:39.243Z,1.20
2019-01-14T20:45:21.054Z,1.30
2019-01-14T20:48:02.764Z,1.70
2019-01-14T20:50:44.546Z,1.70
2019-01-14T20:53:26.624Z,1.70
2019-01-14T20:56:08.349Z,1.70
2019-01-14T20:58:50.515Z,1.70
2019-01-14T21:01:32.580Z,1.70
2019-01-14T21:04:03.075Z,1.70
2019-01-14T21:07:31.907Z,1.70
2019-01-14T21:10:14.603Z,1.70
2019-01-14T21:12:45.063Z,1.70
2019-01-14T21:15:16.948Z,1.70
2019-01-14T21:18:00.738Z,1.60
2019-01-14T21:20:42.986Z,1.60
2019-01-14T21:23:13.358Z,1.50
2019-01-14T21:26:04.358Z,1.50
2019-01-14T21:28:48.042Z,1.50
2019-01-14T21:31:29.854Z,1.40
2019-01-14T21:34:11.582Z,1.40
2019-01-14T21:36:56.220Z,1.30
2019-01-14T21:42:27.355Z,1.30
2019-01-14T21:45:18.209Z,1.20
2019-01-14T21:48:01.486Z,1.00
2019-01-14T21:50:43.783Z,0.90
2019-01-14T21:53:25.790Z,0.80
2019-01-14T21:56:07.526Z,0.80
2019-01-14T21:58:50.226Z,0.70
2019-01-14T22:01:32.820Z,0.60
2019-01-14T22:04:23.903Z,0.70
2019-01-14T22:07:07.606Z,0.70
2019-01-14T22:09:49.786Z,0.70
2019-01-14T22:12:31.418Z,0.80
2019-01-14T22:15:13.303Z,0.90
2019-01-14T22:17:43.642Z,1.00
2019-01-14T22:23:35.727Z,0.90
2019-01-14T22:26:07.522Z,1.00
2019-01-14T22:28:58.371Z,1.10
2019-01-14T22:31:30.270Z,1.20
2019-01-14T22:34:21.098Z,1.00
2019-01-14T22:36:52.894Z,1.00
2019-01-14T22:39:36.439Z,1.10
2019-01-14T22:42:18.374Z,1.30
2019-01-14T22:44:48.747Z,1.30
2019-01-14T22:47:38.190Z,1.30
2019-01-14T22:50:21.574Z,1.30
2019-01-14T22:52:51.936Z,1.20
2019-01-14T22:55:42.739Z,1.20
2019-01-14T22:58:26.074Z,1.20
2019-01-14T23:04:00.012Z,1.10
2019-01-14T23:06:56.058Z,1.00
2019-01-14T23:09:39.928Z,0.80
2019-01-14T23:12:11.731Z,0.90
2019-01-14T23:15:02.616Z,0.90
2019-01-14T23:17:46.447Z,0.90
2019-01-14T23:20:28.871Z,0.90
2019-01-14T23:23:10.793Z,0.80
2019-01-14T23:25:52.938Z,0.80
2019-01-14T23:28:34.801Z,0.60
2019-01-14T23:31:16.470Z,0.50
2019-01-14T23:33:58.674Z,0.40
2019-01-14T23:36:29.052Z,0.30
2019-01-14T23:39:12.694Z,0.10
2019-01-14T23:42:00.301Z,0.00
2019-01-14T23:44:26.826Z,-0.20
2019-01-14T23:47:17.702Z,-0.30
2019-01-14T23:50:00.882Z,-0.50
2019-01-14T23:52:31.240Z,-0.70
2019-01-14T23:55:03.051Z,-0.80
2019-01-14T23:57:46.371Z,-0.90
